Time;durP1;ratioP1;P1;durP2;ratioP2;P2;SDS_P1;SDS_P2;PMS_P1;PMS_P2;Temp;Humidity;BMP_temperature;BMP_pressure;BME280_temperature;BME280_humidity;BME280_pressure;Samples;Min_cycle;Max_cycle;Signal;HPM_P1;HPM_P2
2023/02/07 08:12:03;;;;;;;27.10;14.40;;;;;;;3.83;54.40;98400.34;2081653;27;21161;-67
2023/02/07 08:13:05;;;;;;;23.45;13.68;;;;;;;3.77;54.69;98401.13;2074976;28;20200;-67
2023/02/07 08:17:33;;;;;;;28.90;14.77;;;;;;;2.48;57.94;98405.50;2083891;27;21256;-65
2023/02/07 08:18:35;;;;;;;24.70;15.70;;;;;;;2.52;58.44;98412.44;2079057;28;20225;-65
2023/02/07 08:22:09;;;;;;;25.65;14.40;;;;;;;2.66;58.98;98428.13;2080704;28;20601;-65
2023/02/07 08:25:30;;;;;;;23.58;13.07;;;;;;;3.36;57.14;98430.81;2085820;27;21062;-65
2023/02/07 08:28:33;;;;;;;15.95;10.50;;;;;;;3.27;56.39;98431.53;2102196;27;20556;-65
2023/02/07 08:31:18;;;;;;;18.50;11.13;;;;;;;4.03;55.36;98442.75;2087416;28;20564;-65
2023/02/07 08:32:19;;;;;;;17.05;10.70;;;;;;;3.90;54.63;98439.19;2080500;28;20214;-65
2023/02/07 08:34:51;;;;;;;16.60;10.45;;;;;;;4.00;55.08;98416.00;2099956;27;20565;-66
2023/02/07 08:35:52;;;;;;;19.80;12.32;;;;;;;3.70;54.75;98446.72;2099892;28;20698;-67
2023/02/07 08:36:53;;;;;;;19.75;10.00;;;;;;;3.95;54.76;98443.53;2094205;28;20230;-66
2023/02/07 08:37:56;;;;;;;16.45;9.77;;;;;;;4.61;53.27;98448.44;2091170;28;20291;-67
2023/02/07 08:38:58;;;;;;;17.17;10.15;;;;;;;4.69;52.90;98447.66;2090924;28;20210;-67
2023/02/07 08:40:00;;;;;;;18.05;10.32;;;;;;;4.78;52.81;98448.59;2090003;28;20245;-67
2023/02/07 08:41:02;;;;;;;24.17;9.90;;;;;;;4.72;52.66;98445.09;2088051;28;20204;-67
2023/02/07 08:42:07;;;;;;;16.55;9.73;;;;;;;4.67;52.50;98448.50;2085474;28;20636;-67
2023/02/07 08:43:11;;;;;;;16.48;10.70;;;;;;;4.79;52.67;98451.19;2081573;28;20194;-67
2023/02/07 08:44:12;;;;;;;19.17;9.65;;;;;;;5.28;51.77;98455.81;2084257;28;20529;-67
2023/02/07 08:45:16;;;;;;;18.27;10.18;;;;;;;5.26;51.66;98452.34;2081161;28;20229;-67
2023/02/07 08:46:17;;;;;;;15.20;9.52;;;;;;;5.79;50.73;98461.22;2083608;28;20644;-67
2023/02/07 08:47:19;;;;;;;12.80;9.27;;;;;;;5.70;50.73;98459.47;2079237;28;20229;-67
2023/02/07 08:48:21;;;;;;;16.88;9.95;;;;;;;5.53;50.13;98461.09;2082145;28;20193;-67
2023/02/07 08:49:22;;;;;;;19.15;11.05;;;;;;;5.84;50.08;98461.22;2081062;28;20256;-67
2023/02/07 08:50:24;;;;;;;14.55;9.43;;;;;;;5.82;50.47;98463.81;2082947;28;20221;-68
2023/02/07 08:51:25;;;;;;;15.02;9.85;;;;;;;5.72;49.57;98472.41;2083755;28;20676;-68
2023/02/07 08:52:27;;;;;;;17.40;9.88;;;;;;;5.70;50.08;98467.22;2082665;28;20232;-68
2023/02/07 08:53:30;;;;;;;15.23;9.18;;;;;;;4.65;51.17;98458.84;2083689;28;20243;-68
2023/02/07 08:54:31;;;;;;;14.73;9.60;;;;;;;5.06;51.39;98467.75;2081797;28;20217;-68
2023/02/07 08:55:33;;;;;;;20.73;10.55;;;;;;;5.48;50.41;98471.44;2082325;28;20717;-68
2023/02/07 08:56:34;;;;;;;17.15;9.10;;;;;;;5.99;49.80;98469.09;2082858;28;20198;-68
2023/02/07 08:57:36;;;;;;;14.80;9.23;;;;;;;5.79;50.11;98457.75;2081599;28;20275;-68
2023/02/07 08:58:39;;;;;;;16.85;10.32;;;;;;;5.93;49.77;98474.22;2081034;28;20197;-68
2023/02/07 08:59:41;;;;;;;16.67;10.05;;;;;;;5.68;49.66;98458.56;2078777;28;20537;-68
2023/02/07 09:00:42;;;;;;;13.50;8.80;;;;;;;6.04;49.77;98467.38;2080003;28;20201;-68
2023/02/07 09:01:44;;;;;;;14.85;9.35;;;;;;;5.38;50.13;98446.34;2081367;28;20664;-68
2023/02/07 09:02:46;;;;;;;17.63;9.02;;;;;;;6.61;46.88;98460.53;2082336;28;20229;-68
2023/02/07 09:03:47;;;;;;;18.58;9.15;;;;;;;5.64;49.51;98456.84;2081044;28;20208;-68
2023/02/07 09:04:49;;;;;;;17.45;9.45;;;;;;;6.23;49.18;98451.84;2081632;28;20197;-68
2023/02/07 09:05:56;;;;;;;14.23;9.15;;;;;;;6.07;47.89;98453.56;2082832;28;20205;-68
2023/02/07 09:06:57;;;;;;;14.73;8.90;;;;;;;6.36;48.04;98451.00;2081086;28;20241;-68
2023/02/07 09:08:00;;;;;;;12.20;8.63;;;;;;;6.15;47.58;98440.59;2082841;28;20236;-68
2023/02/07 09:09:01;;;;;;;16.25;8.90;;;;;;;6.36;48.56;98444.91;2081629;28;20208;-68
2023/02/07 09:10:05;;;;;;;14.25;9.00;;;;;;;6.27;47.91;98437.13;2084149;28;20206;-68
2023/02/07 09:11:07;;;;;;;19.80;9.90;;;;;;;6.56;47.36;98441.50;2082331;28;20221;-68
2023/02/07 09:12:10;;;;;;;25.83;10.20;;;;;;;7.93;44.55;98433.31;2081585;28;20225;-68
2023/02/07 09:13:11;;;;;;;28.52;9.20;;;;;;;5.28;47.43;98421.25;2083965;28;20284;-68
2023/02/07 09:14:13;;;;;;;19.98;10.10;;;;;;;5.83;47.33;98441.34;2088416;28;20284;-68
2023/02/07 09:15:14;;;;;;;17.38;9.45;;;;;;;6.09;48.71;98443.16;2080707;28;20645;-68
2023/02/07 09:16:16;;;;;;;15.77;9.60;;;;;;;6.13;47.63;98431.94;2082880;28;20284;-68
2023/02/07 09:17:18;;;;;;;17.85;10.38;;;;;;;6.56;47.77;98424.16;2082120;28;20240;-69
2023/02/07 09:18:21;;;;;;;19.75;8.35;;;;;;;7.19;46.91;98429.28;2080324;28;20590;-68
2023/02/07 09:19:22;;;;;;;16.98;9.50;;;;;;;6.80;45.23;98430.22;2080785;28;20217;-68
2023/02/07 09:20:24;;;;;;;15.18;8.93;;;;;;;6.77;46.46;98412.06;2078626;28;20666;-69
2023/02/07 09:21:25;;;;;;;15.55;9.07;;;;;;;7.29;44.75;98434.47;2081243;28;20660;-69
2023/02/07 09:22:27;;;;;;;23.52;9.23;;;;;;;8.01;43.94;98441.06;2082551;28;20225;-68
2023/02/07 09:23:28;;;;;;;15.88;9.20;;;;;;;8.20;44.66;98440.97;2082528;28;20213;-69
2023/02/07 09:24:29;;;;;;;16.50;9.15;;;;;;;7.96;44.71;98438.50;2082013;28;20210;-69
2023/02/07 09:25:31;;;;;;;15.73;8.52;;;;;;;7.96;45.02;98448.03;2081909;28;20205;-69
2023/02/07 09:26:34;;;;;;;12.73;8.55;;;;;;;8.08;44.87;98442.78;2085033;28;20692;-69
2023/02/07 09:27:35;;;;;;;13.05;8.43;;;;;;;7.98;43.94;98441.09;2081081;28;20225;-69
2023/02/07 09:28:38;;;;;;;12.85;7.90;;;;;;;8.14;43.43;98440.13;2078690;28;20202;-69
2023/02/07 09:29:39;;;;;;;14.57;9.35;;;;;;;7.05;43.97;98436.25;2082743;28;20323;-68
2023/02/07 09:30:42;;;;;;;13.68;8.48;;;;;;;6.82;44.53;98436.28;2081511;28;20285;-69
2023/02/07 09:31:44;;;;;;;17.30;10.05;;;;;;;6.80;44.79;98431.06;2080266;28;20220;-69
2023/02/07 09:32:46;;;;;;;13.40;8.63;;;;;;;7.73;44.86;98440.34;2082942;28;20194;-69
2023/02/07 09:33:47;;;;;;;19.13;9.60;;;;;;;7.47;44.47;98438.75;2078839;28;20616;-69
2023/02/07 09:34:51;;;;;;;16.23;9.88;;;;;;;7.49;45.35;98445.66;2078905;28;20212;-69
2023/02/07 09:35:53;;;;;;;20.80;9.00;;;;;;;7.67;42.93;98449.06;2078586;28;20194;-69
2023/02/07 09:36:55;;;;;;;21.52;8.90;;;;;;;7.74;42.84;98450.75;2080755;28;20205;-69
2023/02/07 09:37:56;;;;;;;36.20;10.15;;;;;;;7.06;45.51;98450.09;2081934;28;20211;-69
2023/02/07 09:38:59;;;;;;;28.00;9.20;;;;;;;7.64;45.03;98454.25;2079325;28;20229;-69
2023/02/07 09:40:01;;;;;;;16.10;9.05;;;;;;;7.79;42.92;98466.34;2087446;28;20227;-69
2023/02/07 09:41:02;;;;;;;16.63;8.90;;;;;;;7.46;42.60;98450.84;2087674;28;20224;-69
2023/02/07 09:42:07;;;;;;;27.77;9.63;;;;;;;6.82;43.59;98464.84;2080352;28;20230;-69
2023/02/07 09:43:33;;;;;;;17.80;9.73;;;;;;;6.94;44.72;98457.03;2078388;28;20207;-69
2023/02/07 09:45:03;;;;;;;27.52;8.85;;;;;;;6.90;44.09;98465.69;2080765;28;20249;-69
2023/02/07 09:46:20;;;;;;;23.50;10.32;;;;;;;6.53;46.28;98451.00;2074920;28;20777;-70
2023/02/07 09:47:23;;;;;;;18.73;8.18;;;;;;;7.81;45.31;98454.19;2081096;28;20217;-70
2023/02/07 09:48:36;;;;;;;16.67;8.13;;;;;;;8.11;43.67;98462.69;2081364;28;20686;-70
2023/02/07 09:49:49;;;;;;;24.15;8.40;;;;;;;7.96;43.35;98469.72;2075653;28;20231;-69
2023/02/07 09:50:59;;;;;;;15.10;7.43;;;;;;;7.73;43.95;98471.56;2074725;28;20199;-70
2023/02/07 09:52:04;;;;;;;22.52;9.55;;;;;;;7.56;45.41;98466.44;2073924;28;20243;-70
2023/02/07 09:53:11;;;;;;;12.63;8.25;;;;;;;8.13;44.30;98472.22;2074552;28;20288;-72
2023/02/07 09:54:27;;;;;;;22.85;8.20;;;;;;;9.00;43.49;98474.22;2075516;28;20196;-70
2023/02/07 09:55:41;;;;;;;18.55;8.20;;;;;;;9.15;42.41;98457.56;2076109;28;20312;-70
2023/02/07 09:56:43;;;;;;;16.15;8.70;;;;;;;9.02;42.75;98469.00;2071834;28;20198;-71
2023/02/07 09:57:49;;;;;;;14.43;9.30;;;;;;;9.21;42.14;98460.13;2073852;28;20256;-70
2023/02/07 09:58:58;;;;;;;12.25;7.60;;;;;;;9.63;42.71;98473.56;2074786;28;20198;-70
2023/02/07 10:00:20;;;;;;;20.35;8.75;;;;;;;10.01;41.42;98483.56;2069129;28;20280;-70
2023/02/07 10:01:31;;;;;;;14.00;7.97;;;;;;;9.97;41.94;98480.97;2076876;28;20206;-71
2023/02/07 10:02:47;;;;;;;12.30;7.72;;;;;;;9.97;41.51;98483.59;2074957;28;20221;-70
2023/02/07 10:04:20;;;;;;;11.60;7.38;;;;;;;10.13;41.53;98483.38;2074608;28;20209;-70
2023/02/07 10:05:28;;;;;;;13.35;8.45;;;;;;;10.66;40.72;98477.44;2072868;28;20191;-70
2023/02/07 10:06:31;;;;;;;18.23;8.27;;;;;;;9.90;41.20;98478.47;2076730;28;20194;-71
2023/02/07 10:07:33;;;;;;;19.02;8.57;;;;;;;9.70;41.49;98471.75;2075300;28;20248;-70
2023/02/07 10:08:35;;;;;;;15.90;8.10;;;;;;;9.44;41.07;98482.47;2076263;28;20558;-71
2023/02/07 10:09:43;;;;;;;12.25;7.75;;;;;;;9.90;41.21;98474.13;2073975;28;20198;-71
2023/02/07 10:11:15;;;;;;;15.73;8.20;;;;;;;9.77;39.57;98470.78;2072732;28;20210;-71
2023/02/07 10:12:32;;;;;;;16.95;8.07;;;;;;;9.68;40.11;98476.13;2073277;28;20222;-71
2023/02/07 10:13:42;;;;;;;19.85;7.60;;;;;;;9.42;39.96;98471.19;2077188;28;20205;-71
2023/02/07 10:15:07;;;;;;;16.02;9.10;;;;;;;9.29;41.60;98471.34;2078712;28;20728;-71
2023/02/07 10:16:28;;;;;;;13.13;7.80;;;;;;;9.91;41.22;98467.16;2075528;28;20241;-71
2023/02/07 10:17:45;;;;;;;27.85;8.25;;;;;;;10.42;40.91;98472.56;2077760;28;20236;-71
2023/02/07 10:19:03;;;;;;;17.40;7.35;;;;;;;10.58;39.58;98456.66;2076424;28;20542;-71
2023/02/07 10:20:25;;;;;;;13.68;8.15;;;;;;;10.71;39.26;98475.63;2074700;28;20693;-71
2023/02/07 10:21:37;;;;;;;12.80;8.02;;;;;;;10.77;39.43;98476.38;2074945;28;20193;-71
2023/02/07 10:22:44;;;;;;;8.88;6.90;;;;;;;10.83;39.15;98474.53;2072795;28;20230;-71
2023/02/07 10:23:57;;;;;;;12.50;7.65;;;;;;;10.91;38.88;98476.13;2073226;28;20621;-72
2023/02/07 10:25:15;;;;;;;13.32;7.75;;;;;;;9.64;39.62;98470.06;2073435;28;20808;-71
2023/02/07 10:26:28;;;;;;;19.80;9.70;;;;;;;9.71;39.23;98476.06;2075771;28;20232;-71
2023/02/07 10:27:40;;;;;;;16.00;8.40;;;;;;;10.09;38.96;98473.88;2078275;28;20229;-71
2023/02/07 10:29:08;;;;;;;18.63;8.32;;;;;;;9.29;39.40;98473.06;2078496;28;20228;-71
2023/02/07 10:30:27;;;;;;;35.85;9.10;;;;;;;7.14;41.72;98464.81;2078315;28;20680;-71
2023/02/07 10:31:32;;;;;;;29.20;8.35;;;;;;;8.25;42.75;98462.63;2072991;28;20290;-72
2023/02/07 10:32:37;;;;;;;23.38;9.20;;;;;;;8.54;40.87;98477.22;2077909;28;20234;-71
2023/02/07 10:33:46;;;;;;;15.95;8.38;;;;;;;7.92;42.39;98478.44;2075704;28;20200;-71
2023/02/07 10:34:52;;;;;;;15.45;8.73;;;;;;;9.02;42.36;98466.41;2074775;28;20866;-72
2023/02/07 10:35:54;;;;;;;15.48;8.93;;;;;;;9.14;42.21;98464.53;2075865;28;20247;-72
2023/02/07 10:36:57;;;;;;;15.35;8.32;;;;;;;9.93;41.10;98457.56;2077312;28;20200;-71
2023/02/07 10:38:00;;;;;;;23.67;8.85;;;;;;;10.52;40.36;98473.28;2078266;28;20591;-71
2023/02/07 10:39:12;;;;;;;17.98;7.78;;;;;;;9.52;40.55;98480.63;2076975;28;20642;-71
2023/02/07 10:40:27;;;;;;;12.70;7.40;;;;;;;9.16;42.04;98482.78;2075059;28;20599;-71
2023/02/07 10:41:38;;;;;;;24.80;8.32;;;;;;;10.28;41.01;98479.69;2076548;28;20244;-71
2023/02/07 10:42:44;;;;;;;17.10;7.82;;;;;;;10.71;39.99;98459.94;2075219;28;20918;-71
2023/02/07 10:43:46;;;;;;;15.05;9.27;;;;;;;10.40;39.91;98473.47;2076157;28;20536;-71
2023/02/07 10:44:48;;;;;;;11.68;6.88;;;;;;;11.31;38.33;98476.31;2075908;28;20235;-71
2023/02/07 10:45:52;;;;;;;16.40;8.23;;;;;;;11.56;38.19;98474.97;2077948;28;20207;-71
2023/02/07 10:47:07;;;;;;;12.27;7.80;;;;;;;11.91;38.07;98473.41;2079621;28;20234;-71
2023/02/07 10:48:14;;;;;;;14.13;8.30;;;;;;;10.86;36.94;98467.50;2084243;28;20209;-72
2023/02/07 10:49:22;;;;;;;19.77;8.77;;;;;;;9.66;39.59;98472.66;2084958;28;20214;-71
2023/02/07 10:50:27;;;;;;;34.08;10.55;;;;;;;9.89;39.82;98479.34;2086497;28;20201;-72
2023/02/07 10:51:37;;;;;;;16.40;8.50;;;;;;;10.18;39.03;98480.72;2085626;28;20286;-71
2023/02/07 10:52:43;;;;;;;15.60;9.25;;;;;;;9.90;39.81;98479.34;2083316;28;20230;-71
2023/02/07 10:53:59;;;;;;;16.10;9.15;;;;;;;10.76;39.83;98476.41;2085632;28;20204;-72
2023/02/07 10:55:05;;;;;;;17.77;8.23;;;;;;;11.19;38.37;98483.50;2085012;28;20247;-71
2023/02/07 10:56:15;;;;;;;18.45;8.43;;;;;;;10.75;38.51;98466.81;2086833;28;20206;-71
2023/02/07 10:57:18;;;;;;;19.05;7.93;;;;;;;10.49;40.38;98482.91;2083119;28;20226;-71
2023/02/07 10:58:23;;;;;;;20.23;8.02;;;;;;;10.35;38.01;98477.84;2084585;28;20195;-71
2023/02/07 10:59:39;;;;;;;17.90;7.78;;;;;;;10.37;39.81;98476.97;2086034;28;20212;-71
2023/02/07 11:00:47;;;;;;;14.13;8.45;;;;;;;11.22;38.54;98478.22;2083946;28;20222;-71
2023/02/07 11:01:52;;;;;;;18.05;8.55;;;;;;;11.44;38.38;98481.31;2082557;28;20207;-70
2023/02/07 11:03:02;;;;;;;19.27;8.68;;;;;;;11.61;39.48;98480.09;2083316;28;20232;-71
2023/02/07 11:04:22;;;;;;;17.50;8.57;;;;;;;11.74;37.91;98483.34;2083994;28;20209;-71
2023/02/07 11:05:23;;;;;;;19.38;8.25;;;;;;;12.30;37.28;98480.44;2082155;28;20335;-71
2023/02/07 11:06:29;;;;;;;12.90;7.95;;;;;;;12.47;37.48;98474.81;2084900;28;20200;-71
2023/02/07 11:07:30;;;;;;;19.00;8.60;;;;;;;13.16;34.11;98469.63;2085078;28;20711;-71
2023/02/07 11:08:47;;;;;;;21.02;8.20;;;;;;;12.59;35.13;98476.28;2087054;28;20212;-71
2023/02/07 11:09:49;;;;;;;23.05;9.10;;;;;;;11.36;36.13;98477.09;2085329;28;20210;-70
2023/02/07 11:10:54;;;;;;;29.17;8.98;;;;;;;10.86;37.37;98451.84;2085843;28;20246;-71
2023/02/07 11:11:57;;;;;;;15.57;8.73;;;;;;;11.38;37.48;98472.72;2083311;28;20197;-70
2023/02/07 11:13:00;;;;;;;14.27;9.05;;;;;;;11.04;37.06;98448.03;2084878;28;20541;-71
2023/02/07 11:14:04;;;;;;;17.45;8.73;;;;;;;10.54;39.06;98470.63;2085123;28;20197;-71
2023/02/07 11:15:16;;;;;;;17.27;7.45;;;;;;;11.59;38.14;98481.88;2082088;28;20204;-70
2023/02/07 11:16:20;;;;;;;14.23;8.77;;;;;;;11.50;38.01;98479.47;2085299;28;20196;-70
2023/02/07 11:17:21;;;;;;;17.73;7.63;;;;;;;12.35;35.50;98462.84;2083602;28;20274;-70
2023/02/07 11:18:40;;;;;;;19.58;9.25;;;;;;;8.89;39.45;98487.34;2086039;28;20206;-70
2023/02/07 11:19:45;;;;;;;19.25;8.75;;;;;;;10.23;40.74;98482.41;2084624;28;20218;-71
2023/02/07 11:20:51;;;;;;;17.08;9.05;;;;;;;9.34;39.58;98467.81;2081828;28;20728;-71
2023/02/07 11:22:21;;;;;;;18.35;8.88;;;;;;;8.75;41.01;98482.25;2081165;28;20193;-70
2023/02/07 11:23:24;;;;;;;17.10;9.10;;;;;;;8.64;42.28;98478.88;2083649;28;20192;-70
2023/02/07 11:24:30;;;;;;;16.55;9.13;;;;;;;8.51;40.44;98488.53;2082933;28;20205;-71
2023/02/07 11:25:37;;;;;;;15.90;9.63;;;;;;;8.79;42.72;98481.34;2083890;28;20204;-70
2023/02/07 11:27:06;;;;;;;20.55;9.23;;;;;;;9.18;41.84;98473.19;2083670;28;20205;-70
2023/02/07 11:28:19;;;;;;;26.55;10.02;;;;;;;9.80;41.45;98478.59;2087395;28;20201;-71
2023/02/07 11:29:23;;;;;;;19.05;9.30;;;;;;;10.81;40.01;98477.19;2083821;28;20285;-70
2023/02/07 11:30:27;;;;;;;18.65;8.25;;;;;;;10.85;37.27;98473.63;2084102;28;20197;-70
2023/02/07 11:31:31;;;;;;;13.07;8.23;;;;;;;10.40;39.00;98474.34;2084206;28;20197;-70
2023/02/07 11:32:35;;;;;;;12.68;8.43;;;;;;;10.86;39.01;98469.28;2081205;28;20222;-71
2023/02/07 11:33:36;;;;;;;20.35;8.10;;;;;;;11.14;39.24;98474.88;2082501;28;20201;-71
2023/02/07 11:34:51;;;;;;;14.98;8.70;;;;;;;10.60;37.79;98479.25;2085054;28;20268;-71
2023/02/07 11:36:09;;;;;;;10.32;7.28;;;;;;;7.94;40.41;98468.00;2083140;28;20212;-70
2023/02/07 11:37:20;;;;;;;12.25;8.23;;;;;;;8.46;41.20;98465.09;2081379;28;20781;-70
2023/02/07 11:38:21;;;;;;;14.95;8.75;;;;;;;8.86;41.16;98478.69;2081958;28;20193;-70
2023/02/07 11:39:23;;;;;;;17.13;8.25;;;;;;;9.95;41.50;98472.31;2083673;28;20235;-71
2023/02/07 11:40:34;;;;;;;14.75;8.18;;;;;;;11.09;40.79;98467.09;2084980;28;20205;-70
2023/02/07 11:41:37;;;;;;;18.80;8.43;;;;;;;11.49;38.01;98476.00;2085138;28;20236;-71
2023/02/07 11:42:39;;;;;;;15.73;8.70;;;;;;;11.63;38.70;98472.22;2079271;28;20277;-71
2023/02/07 11:43:51;;;;;;;14.23;8.35;;;;;;;11.75;37.18;98472.84;2082704;28;20267;-70
2023/02/07 11:44:53;;;;;;;15.50;8.05;;;;;;;11.67;38.28;98471.25;2084392;28;20232;-70
2023/02/07 11:46:08;;;;;;;23.27;8.90;;;;;;;10.41;38.60;98473.44;2082475;28;20216;-71
2023/02/07 11:47:18;;;;;;;14.77;9.13;;;;;;;10.94;40.18;98476.09;2082802;28;20221;-70
2023/02/07 11:48:28;;;;;;;14.27;7.47;;;;;;;11.21;38.51;98479.13;2084842;28;20556;-70
2023/02/07 11:49:36;;;;;;;19.85;8.45;;;;;;;11.55;39.11;98475.00;2083082;28;20238;-70
2023/02/07 11:50:42;;;;;;;17.63;8.48;;;;;;;11.49;38.78;98468.16;2083352;28;20217;-70
2023/02/07 11:51:43;;;;;;;16.55;8.45;;;;;;;10.50;38.13;98474.19;2082994;28;20313;-70
2023/02/07 11:52:50;;;;;;;18.80;8.77;;;;;;;10.81;39.34;98471.97;2084457;28;20229;-70
2023/02/07 11:53:55;;;;;;;14.48;9.10;;;;;;;10.08;40.07;98475.63;2084435;28;20284;-70
2023/02/07 11:55:01;;;;;;;13.98;8.30;;;;;;;9.63;40.91;98460.50;2080407;28;20225;-70
2023/02/07 11:56:03;;;;;;;16.80;7.88;;;;;;;8.03;40.67;98467.09;2082202;28;20223;-70
2023/02/07 11:57:16;;;;;;;16.27;8.82;;;;;;;7.87;43.98;98477.56;2074623;28;20618;-70
2023/02/07 11:58:45;;;;;;;19.17;8.45;;;;;;;9.88;41.79;98464.56;2082091;28;20671;-70
2023/02/07 12:00:00;;;;;;;16.17;9.23;;;;;;;10.68;41.46;98473.91;2082584;28;20254;-71
2023/02/07 12:01:04;;;;;;;14.35;8.52;;;;;;;10.63;40.08;98473.13;2083442;28;20197;-70
2023/02/07 12:02:19;;;;;;;21.60;9.73;;;;;;;10.62;40.65;98472.25;2081810;28;20740;-70
2023/02/07 12:03:27;;;;;;;14.88;8.50;;;;;;;8.43;41.16;98467.72;2084795;28;20196;-70
2023/02/07 12:04:37;;;;;;;27.58;8.75;;;;;;;9.26;41.48;98465.31;2099150;28;20487;-70
2023/02/07 12:05:44;;;;;;;21.77;9.63;;;;;;;10.27;41.32;98472.75;2096590;28;20207;-70
2023/02/07 12:06:57;;;;;;;15.93;9.55;;;;;;;10.94;39.24;98480.44;2081647;28;20273;-69
2023/02/07 12:08:03;;;;;;;13.77;8.75;;;;;;;9.55;39.68;98469.31;2086012;28;20208;-70
2023/02/07 12:09:20;;;;;;;27.38;9.65;;;;;;;9.15;40.12;98463.66;2084529;28;20201;-70
2023/02/07 12:10:35;;;;;;;25.65;10.35;;;;;;;9.64;40.31;98470.06;2083517;28;20208;-69
2023/02/07 12:11:40;;;;;;;23.58;11.90;;;;;;;9.18;42.37;98461.88;2082365;28;20228;-70
2023/02/07 12:12:47;;;;;;;20.70;10.55;;;;;;;10.59;41.49;98482.75;2086673;28;20221;-70
2023/02/07 12:13:57;;;;;;;16.48;8.15;;;;;;;11.01;40.22;98471.63;2084644;28;20303;-70
2023/02/07 12:15:12;;;;;;;17.08;8.48;;;;;;;11.73;39.65;98464.19;2085587;28;20733;-70
2023/02/07 12:16:28;;;;;;;15.70;9.23;;;;;;;11.77;38.34;98468.44;2084204;28;20225;-70
2023/02/07 12:17:46;;;;;;;18.30;9.38;;;;;;;10.90;37.68;98471.78;2083807;28;20232;-69
2023/02/07 12:19:09;;;;;;;19.77;9.30;;;;;;;9.61;38.33;98464.91;2086135;28;20192;-70
2023/02/07 12:20:33;;;;;;;20.13;10.40;;;;;;;8.65;42.21;98464.97;2083374;28;20212;-70
2023/02/07 12:21:45;;;;;;;19.00;9.95;;;;;;;9.30;41.08;98462.63;2084509;28;20445;-70
2023/02/07 12:22:53;;;;;;;20.15;9.30;;;;;;;8.53;41.76;98468.53;2082544;28;20248;-70
2023/02/07 12:24:21;;;;;;;21.08;8.60;;;;;;;7.28;41.72;98467.38;2081628;28;20201;-71
2023/02/07 12:25:30;;;;;;;24.10;8.93;;;;;;;7.49;42.45;98453.47;2083402;28;20198;-70
2023/02/07 12:26:39;;;;;;;20.70;9.40;;;;;;;7.00;42.89;98438.84;2083787;28;20201;-70
2023/02/07 12:27:44;;;;;;;34.53;9.10;;;;;;;8.51;43.44;98444.25;2082542;28;20699;-69
2023/02/07 12:28:51;;;;;;;32.70;9.55;;;;;;;9.30;42.55;98460.00;2086122;28;20302;-70
2023/02/07 12:30:25;;;;;;;16.10;8.50;;;;;;;9.19;40.20;98442.78;2084033;28;20293;-70
2023/02/07 12:31:40;;;;;;;21.25;8.73;;;;;;;7.24;42.64;98452.66;2084227;28;20228;-70
2023/02/07 12:33:23;;;;;;;18.02;8.20;;;;;;;7.95;41.97;98452.38;2075637;28;20221;-71
2023/02/07 12:34:42;;;;;;;30.58;8.25;;;;;;;9.07;42.40;98457.66;2071862;28;20295;-69
2023/02/07 12:35:59;;;;;;;14.35;9.30;;;;;;;7.88;43.23;98445.47;2072948;28;20664;-69
2023/02/07 12:37:38;;;;;;;16.77;8.68;;;;;;;9.13;42.57;98457.59;2074727;28;20295;-69
2023/02/07 12:38:50;;;;;;;21.33;9.05;;;;;;;10.39;42.19;98454.31;2074977;28;20205;-69
2023/02/07 12:40:01;;;;;;;20.15;8.98;;;;;;;8.81;42.44;98453.56;2073749;28;20230;-70
2023/02/07 12:41:14;;;;;;;18.83;8.43;;;;;;;10.20;41.16;98447.63;2075442;28;20586;-69
2023/02/07 12:42:21;;;;;;;18.10;8.88;;;;;;;8.94;41.03;98453.47;2077798;28;20307;-68
2023/02/07 12:43:30;;;;;;;16.58;8.90;;;;;;;9.17;40.69;98436.69;2083334;28;20201;-68
2023/02/07 12:44:40;;;;;;;20.23;9.85;;;;;;;9.23;42.52;98445.34;2082347;28;20232;-68
2023/02/07 12:45:50;;;;;;;17.15;8.02;;;;;;;10.46;42.01;98439.41;2082182;28;20209;-69
2023/02/07 12:47:07;;;;;;;18.65;8.10;;;;;;;10.76;39.81;98438.06;2080669;28;20208;-68
2023/02/07 12:48:27;;;;;;;16.38;8.90;;;;;;;10.25;40.04;98441.44;2082606;28;20204;-69
2023/02/07 12:49:37;;;;;;;20.70;8.95;;;;;;;10.47;39.65;98435.91;2081663;28;20224;-68
2023/02/07 12:50:53;;;;;;;19.58;8.63;;;;;;;10.75;39.38;98432.84;2081437;28;20208;-68
2023/02/07 12:52:08;;;;;;;15.85;8.75;;;;;;;11.25;39.28;98420.63;2083909;28;20550;-68
2023/02/07 12:53:44;;;;;;;14.10;8.77;;;;;;;11.18;38.13;98431.25;2083245;28;20262;-68
2023/02/07 12:55:01;;;;;;;20.45;8.00;;;;;;;10.92;39.44;98422.97;2082399;28;20251;-68
2023/02/07 12:56:22;;;;;;;19.13;8.75;;;;;;;11.49;38.04;98421.06;2083547;28;20532;-68
2023/02/07 12:57:31;;;;;;;17.58;7.93;;;;;;;8.75;40.41;98418.91;2081865;28;20225;-69
2023/02/07 12:58:41;;;;;;;17.27;8.63;;;;;;;8.08;42.12;98419.34;2082246;28;20236;-69
2023/02/07 12:59:56;;;;;;;21.55;8.60;;;;;;;8.20;43.88;98420.16;2083688;28;20721;-69
2023/02/07 13:01:21;;;;;;;18.77;8.80;;;;;;;8.11;44.05;98423.66;2091653;28;20750;-68
2023/02/07 13:02:56;;;;;;;38.47;8.50;;;;;;;10.06;42.34;98421.72;2086894;28;20264;-68
2023/02/07 13:04:07;;;;;;;13.57;7.70;;;;;;;11.14;44.51;98421.75;2080753;28;20278;-69
2023/02/07 13:05:14;;;;;;;14.25;8.30;;;;;;;11.04;43.61;98426.25;2082704;28;20201;-68
2023/02/07 13:06:38;;;;;;;12.63;8.15;;;;;;;11.33;40.65;98417.88;2083978;28;20202;-69
2023/02/07 13:08:12;;;;;;;19.00;9.07;;;;;;;10.63;39.74;98426.09;2082675;28;20258;-68
2023/02/07 13:09:23;;;;;;;13.05;8.50;;;;;;;11.80;39.97;98417.78;2067901;28;20681;-67
2023/02/07 13:10:37;;;;;;;12.93;8.20;;;;;;;12.12;39.13;98416.25;2069244;28;20207;-68
2023/02/07 13:12:06;;;;;;;29.25;8.55;;;;;;;12.11;39.42;98416.28;2082217;28;20233;-67
2023/02/07 13:13:19;;;;;;;14.02;8.40;;;;;;;10.16;39.19;98414.59;2082547;28;20819;-68
2023/02/07 13:14:39;;;;;;;13.15;7.72;;;;;;;10.60;40.92;98415.69;2083611;28;20682;-68
2023/02/07 13:15:47;;;;;;;13.63;8.32;;;;;;;11.32;39.48;98408.28;2090662;28;20197;-68
2023/02/07 13:17:23;;;;;;;20.80;9.73;;;;;;;11.75;39.07;98415.25;2082082;28;20259;-69
2023/02/07 13:18:43;;;;;;;16.60;7.80;;;;;;;10.57;38.57;98415.75;2085293;28;20611;-69
2023/02/07 13:20:10;;;;;;;24.45;9.60;;;;;;;9.92;40.69;98420.16;2082691;28;20781;-69
2023/02/07 13:21:24;;;;;;;19.90;8.65;;;;;;;8.36;40.49;98413.09;2083678;28;20204;-69
2023/02/07 13:22:59;;;;;;;12.15;8.00;;;;;;;8.68;43.35;98414.59;2100023;28;20276;-69
2023/02/07 13:24:03;;;;;;;13.23;7.93;;;;;;;9.13;41.72;98418.50;2087898;28;20656;-69
2023/02/07 13:25:12;;;;;;;19.00;8.57;;;;;;;10.25;41.06;98423.16;2084198;28;20193;-69
2023/02/07 13:26:19;;;;;;;16.90;8.05;;;;;;;10.53;40.37;98417.53;2085053;28;20212;-69
2023/02/07 13:27:23;;;;;;;14.02;9.35;;;;;;;10.10;39.75;98413.81;2084332;28;20217;-69
2023/02/07 13:28:32;;;;;;;18.98;8.93;;;;;;;7.54;42.37;98414.44;2085694;28;20240;-69
2023/02/07 13:29:36;;;;;;;15.00;8.57;;;;;;;8.32;43.24;98410.50;2081214;28;20198;-69
2023/02/07 13:30:39;;;;;;;18.02;9.10;;;;;;;8.65;43.06;98408.53;2084609;28;20228;-69
2023/02/07 13:31:55;;;;;;;27.08;8.80;;;;;;;9.69;42.14;98402.22;2082833;28;20544;-68
2023/02/07 13:33:03;;;;;;;12.88;8.43;;;;;;;8.58;41.29;98426.84;2083193;28;20204;-69
2023/02/07 13:34:12;;;;;;;17.77;9.68;;;;;;;9.67;43.42;98413.53;2084151;28;20206;-69
2023/02/07 13:35:22;;;;;;;17.25;9.82;;;;;;;9.40;42.39;98418.22;2085826;28;20205;-69
2023/02/07 13:36:41;;;;;;;20.90;9.75;;;;;;;10.02;42.12;98414.78;2084878;28;20198;-69
2023/02/07 13:37:48;;;;;;;18.75;8.50;;;;;;;10.60;41.60;98418.28;2084274;28;20878;-70
2023/02/07 13:38:55;;;;;;;16.42;8.95;;;;;;;10.51;40.12;98416.69;2083572;28;20196;-69
2023/02/07 13:40:16;;;;;;;15.35;9.90;;;;;;;9.65;39.84;98416.19;2084604;28;20231;-69
2023/02/07 13:41:45;;;;;;;25.48;11.63;;;;;;;8.15;42.89;98405.44;2085463;28;20293;-70
2023/02/07 13:43:10;;;;;;;14.60;8.00;;;;;;;8.23;41.67;98414.91;2078556;28;20675;-70
2023/02/07 13:44:27;;;;;;;28.83;10.52;;;;;;;9.39;40.86;98419.09;2078085;28;20198;-60
2023/02/07 13:46:02;;;;;;;24.45;9.45;;;;;;;8.24;43.09;98417.53;2091272;28;20294;-58
2023/02/07 13:47:21;;;;;;;16.70;8.98;;;;;;;8.30;44.58;98421.81;2081829;28;20240;-61
2023/02/07 13:48:29;;;;;;;19.00;9.18;;;;;;;8.99;42.39;98421.25;2084806;28;20196;-60
2023/02/07 13:49:44;;;;;;;30.60;9.73;;;;;;;8.72;42.29;98414.53;2083034;28;20680;-60
2023/02/07 13:51:00;;;;;;;25.65;9.85;;;;;;;9.86;41.43;98416.78;2083798;28;20282;-61